Heanor, United Kingdom
Current Conditions -  °F | °C
As of 6:20 AM on Sunday 21 Dec 2014 (Local Time) from EGNX Reporting Station
Scattered Clouds Scattered Clouds  
Wind Chill: 37°   Ceiling: Unl
Heat Index: 45°   Visibility: 6mi
Dew Point: 41°   Wind: 18mph
Humidity: 87%   Direction: 240°WSW
Pressure: 30.24"   Gusts: NA
Location:  53°N, 1.36°W
Report Text: EGNX 210620Z 24016KT 9999 SCT033 07/05 Q1024
Loading
Personal Weather Stations






























Interactive Weather Map New forecast layout! Learn more

10-Day Weather Forecast

Advertisements
Track Severe Weather on mobile